sensor_id;sensor_type;location;lat;lon;timestamp;P1;durP1;ratioP1;P2;durP2;ratioP2
39188;SDS011;24915;50.858;4.376;2022-12-20T00:02:09;7.30;;;2.67;;
39188;SDS011;24915;50.858;4.376;2022-12-20T00:04:34;5.65;;;2.88;;
39188;SDS011;24915;50.858;4.376;2022-12-20T00:07:00;6.80;;;2.67;;
39188;SDS011;24915;50.858;4.376;2022-12-20T00:09:26;5.72;;;2.78;;
39188;SDS011;24915;50.858;4.376;2022-12-20T00:11:51;5.30;;;2.60;;
39188;SDS011;24915;50.858;4.376;2022-12-20T00:14:17;3.70;;;2.30;;
39188;SDS011;24915;50.858;4.376;2022-12-20T00:16:43;2.60;;;2.30;;
39188;SDS011;24915;50.858;4.376;2022-12-20T00:19:09;3.60;;;2.35;;
39188;SDS011;24915;50.858;4.376;2022-12-20T00:21:35;2.95;;;2.50;;
39188;SDS011;24915;50.858;4.376;2022-12-20T00:24:02;3.92;;;2.40;;
39188;SDS011;24915;50.858;4.376;2022-12-20T00:26:30;5.50;;;2.38;;
39188;SDS011;24915;50.858;4.376;2022-12-20T00:28:57;5.13;;;2.83;;
39188;SDS011;24915;50.858;4.376;2022-12-20T00:31:24;10.68;;;3.08;;
39188;SDS011;24915;50.858;4.376;2022-12-20T00:33:52;5.38;;;2.47;;
39188;SDS011;24915;50.858;4.376;2022-12-20T00:36:19;5.82;;;2.65;;
39188;SDS011;24915;50.858;4.376;2022-12-20T00:38:46;5.07;;;2.30;;
39188;SDS011;24915;50.858;4.376;2022-12-20T00:41:14;3.65;;;2.40;;
39188;SDS011;24915;50.858;4.376;2022-12-20T00:43:42;3.35;;;2.45;;
39188;SDS011;24915;50.858;4.376;2022-12-20T00:46:09;6.10;;;2.45;;
39188;SDS011;24915;50.858;4.376;2022-12-20T00:48:36;4.90;;;2.58;;
39188;SDS011;24915;50.858;4.376;2022-12-20T00:51:03;4.45;;;3.10;;
39188;SDS011;24915;50.858;4.376;2022-12-20T00:53:33;2.53;;;2.17;;
39188;SDS011;24915;50.858;4.376;2022-12-20T00:56:00;4.53;;;2.38;;
39188;SDS011;24915;50.858;4.376;2022-12-20T00:58:26;3.15;;;2.47;;
39188;SDS011;24915;50.858;4.376;2022-12-20T01:00:51;4.20;;;2.38;;
39188;SDS011;24915;50.858;4.376;2022-12-20T01:03:17;7.47;;;2.70;;
39188;SDS011;24915;50.858;4.376;2022-12-20T01:05:53;7.72;;;2.80;;
39188;SDS011;24915;50.858;4.376;2022-12-20T01:08:19;2.88;;;2.50;;
39188;SDS011;24915;50.858;4.376;2022-12-20T01:10:45;3.85;;;2.53;;
39188;SDS011;24915;50.858;4.376;2022-12-20T01:13:11;4.90;;;2.40;;
39188;SDS011;24915;50.858;4.376;2022-12-20T01:15:37;6.32;;;2.20;;
39188;SDS011;24915;50.858;4.376;2022-12-20T01:18:03;3.88;;;2.75;;
39188;SDS011;24915;50.858;4.376;2022-12-20T01:20:28;5.03;;;2.65;;
39188;SDS011;24915;50.858;4.376;2022-12-20T01:22:54;8.43;;;2.83;;
39188;SDS011;24915;50.858;4.376;2022-12-20T01:25:20;3.20;;;2.05;;
39188;SDS011;24915;50.858;4.376;2022-12-20T01:27:45;4.60;;;2.88;;
39188;SDS011;24915;50.858;4.376;2022-12-20T01:30:11;3.30;;;2.55;;
39188;SDS011;24915;50.858;4.376;2022-12-20T01:32:37;7.57;;;2.70;;
39188;SDS011;24915;50.858;4.376;2022-12-20T01:35:03;4.05;;;2.60;;
39188;SDS011;24915;50.858;4.376;2022-12-20T01:37:29;3.38;;;2.30;;
39188;SDS011;24915;50.858;4.376;2022-12-20T01:39:55;4.28;;;2.60;;
39188;SDS011;24915;50.858;4.376;2022-12-20T01:42:21;4.30;;;3.22;;
39188;SDS011;24915;50.858;4.376;2022-12-20T01:44:50;3.85;;;2.20;;
39188;SDS011;24915;50.858;4.376;2022-12-20T01:47:21;5.20;;;3.08;;
39188;SDS011;24915;50.858;4.376;2022-12-20T01:49:49;6.55;;;2.70;;
39188;SDS011;24915;50.858;4.376;2022-12-20T01:52:26;5.68;;;2.67;;
39188;SDS011;24915;50.858;4.376;2022-12-20T01:55:06;5.22;;;2.65;;
39188;SDS011;24915;50.858;4.376;2022-12-20T02:00:18;4.38;;;2.78;;
39188;SDS011;24915;50.858;4.376;2022-12-20T02:02:45;7.47;;;2.70;;
39188;SDS011;24915;50.858;4.376;2022-12-20T02:05:13;3.28;;;2.47;;
39188;SDS011;24915;50.858;4.376;2022-12-20T02:07:40;6.57;;;2.90;;
39188;SDS011;24915;50.858;4.376;2022-12-20T02:10:08;5.70;;;2.60;;
39188;SDS011;24915;50.858;4.376;2022-12-20T02:12:45;4.47;;;3.08;;
39188;SDS011;24915;50.858;4.376;2022-12-20T02:21:11;2.97;;;2.55;;
39188;SDS011;24915;50.858;4.376;2022-12-20T02:27:09;4.80;;;2.60;;
39188;SDS011;24915;50.858;4.376;2022-12-20T02:35:18;4.88;;;2.55;;
39188;SDS011;24915;50.858;4.376;2022-12-20T02:37:48;3.97;;;2.50;;
39188;SDS011;24915;50.858;4.376;2022-12-20T02:40:16;6.30;;;2.40;;
39188;SDS011;24915;50.858;4.376;2022-12-20T02:42:45;5.93;;;2.80;;
39188;SDS011;24915;50.858;4.376;2022-12-20T02:45:14;3.47;;;2.33;;
39188;SDS011;24915;50.858;4.376;2022-12-20T02:47:49;3.90;;;2.65;;
39188;SDS011;24915;50.858;4.376;2022-12-20T02:50:24;6.18;;;2.38;;
39188;SDS011;24915;50.858;4.376;2022-12-20T02:52:53;3.25;;;2.35;;
39188;SDS011;24915;50.858;4.376;2022-12-20T02:55:19;8.30;;;2.70;;
39188;SDS011;24915;50.858;4.376;2022-12-20T02:57:58;8.52;;;2.75;;
39188;SDS011;24915;50.858;4.376;2022-12-20T03:00:36;2.85;;;2.08;;
39188;SDS011;24915;50.858;4.376;2022-12-20T03:03:06;6.75;;;2.40;;
39188;SDS011;24915;50.858;4.376;2022-12-20T03:05:47;4.78;;;2.40;;
39188;SDS011;24915;50.858;4.376;2022-12-20T03:08:15;3.85;;;2.20;;
39188;SDS011;24915;50.858;4.376;2022-12-20T03:10:41;6.30;;;2.40;;
39188;SDS011;24915;50.858;4.376;2022-12-20T03:13:08;4.15;;;2.38;;
39188;SDS011;24915;50.858;4.376;2022-12-20T03:15:34;3.03;;;2.60;;
39188;SDS011;24915;50.858;4.376;2022-12-20T03:17:59;5.78;;;2.53;;
39188;SDS011;24915;50.858;4.376;2022-12-20T03:20:25;3.13;;;2.22;;
39188;SDS011;24915;50.858;4.376;2022-12-20T03:22:50;6.35;;;2.45;;
39188;SDS011;24915;50.858;4.376;2022-12-20T03:25:16;3.30;;;2.40;;
39188;SDS011;24915;50.858;4.376;2022-12-20T03:27:42;5.93;;;2.08;;
39188;SDS011;24915;50.858;4.376;2022-12-20T03:30:07;4.43;;;2.55;;
39188;SDS011;24915;50.858;4.376;2022-12-20T03:32:33;4.55;;;2.47;;
39188;SDS011;24915;50.858;4.376;2022-12-20T03:34:59;3.15;;;2.25;;
39188;SDS011;24915;50.858;4.376;2022-12-20T03:37:24;4.38;;;2.38;;
39188;SDS011;24915;50.858;4.376;2022-12-20T03:39:50;5.63;;;2.30;;
39188;SDS011;24915;50.858;4.376;2022-12-20T03:42:16;3.80;;;2.13;;
39188;SDS011;24915;50.858;4.376;2022-12-20T03:44:41;4.30;;;2.30;;
39188;SDS011;24915;50.858;4.376;2022-12-20T03:47:07;3.38;;;2.30;;
39188;SDS011;24915;50.858;4.376;2022-12-20T03:49:33;4.07;;;2.17;;
39188;SDS011;24915;50.858;4.376;2022-12-20T03:51:58;4.32;;;2.45;;
39188;SDS011;24915;50.858;4.376;2022-12-20T03:54:24;3.55;;;2.20;;
39188;SDS011;24915;50.858;4.376;2022-12-20T03:56:50;4.63;;;2.60;;
39188;SDS011;24915;50.858;4.376;2022-12-20T03:59:16;10.93;;;3.83;;
39188;SDS011;24915;50.858;4.376;2022-12-20T04:01:41;4.20;;;2.53;;
39188;SDS011;24915;50.858;4.376;2022-12-20T04:04:08;6.20;;;2.70;;
39188;SDS011;24915;50.858;4.376;2022-12-20T04:06:35;3.28;;;2.30;;
39188;SDS011;24915;50.858;4.376;2022-12-20T04:09:00;3.92;;;2.42;;
39188;SDS011;24915;50.858;4.376;2022-12-20T04:11:26;3.08;;;2.20;;
39188;SDS011;24915;50.858;4.376;2022-12-20T04:13:52;5.20;;;2.65;;
39188;SDS011;24915;50.858;4.376;2022-12-20T04:16:19;5.55;;;2.40;;
39188;SDS011;24915;50.858;4.376;2022-12-20T04:18:47;3.95;;;2.10;;
39188;SDS011;24915;50.858;4.376;2022-12-20T04:21:13;4.13;;;2.33;;
39188;SDS011;24915;50.858;4.376;2022-12-20T04:23:40;6.28;;;2.28;;
39188;SDS011;24915;50.858;4.376;2022-12-20T04:26:07;6.18;;;2.45;;
39188;SDS011;24915;50.858;4.376;2022-12-20T04:28:34;7.53;;;2.38;;
39188;SDS011;24915;50.858;4.376;2022-12-20T04:31:00;5.32;;;2.47;;
39188;SDS011;24915;50.858;4.376;2022-12-20T04:33:27;8.63;;;3.35;;
39188;SDS011;24915;50.858;4.376;2022-12-20T04:35:53;5.22;;;3.00;;
39188;SDS011;24915;50.858;4.376;2022-12-20T04:38:19;3.85;;;2.10;;
39188;SDS011;24915;50.858;4.376;2022-12-20T04:40:49;6.32;;;2.00;;
39188;SDS011;24915;50.858;4.376;2022-12-20T04:43:15;6.35;;;3.13;;
39188;SDS011;24915;50.858;4.376;2022-12-20T04:45:42;7.00;;;2.80;;
39188;SDS011;24915;50.858;4.376;2022-12-20T04:48:09;5.18;;;2.38;;
39188;SDS011;24915;50.858;4.376;2022-12-20T04:50:35;4.25;;;2.60;;
39188;SDS011;24915;50.858;4.376;2022-12-20T04:53:01;5.25;;;1.92;;
39188;SDS011;24915;50.858;4.376;2022-12-20T04:55:45;5.60;;;1.95;;
39188;SDS011;24915;50.858;4.376;2022-12-20T04:58:11;3.45;;;1.90;;
39188;SDS011;24915;50.858;4.376;2022-12-20T05:00:37;5.30;;;2.53;;
39188;SDS011;24915;50.858;4.376;2022-12-20T05:03:03;4.40;;;2.17;;
39188;SDS011;24915;50.858;4.376;2022-12-20T05:05:28;5.32;;;2.03;;
39188;SDS011;24915;50.858;4.376;2022-12-20T05:07:54;5.35;;;1.88;;
39188;SDS011;24915;50.858;4.376;2022-12-20T05:10:20;4.20;;;1.98;;
39188;SDS011;24915;50.858;4.376;2022-12-20T05:12:46;4.82;;;2.33;;
39188;SDS011;24915;50.858;4.376;2022-12-20T05:15:11;9.30;;;2.47;;
39188;SDS011;24915;50.858;4.376;2022-12-20T05:17:37;6.45;;;1.98;;
39188;SDS011;24915;50.858;4.376;2022-12-20T05:20:04;2.95;;;1.98;;
39188;SDS011;24915;50.858;4.376;2022-12-20T05:22:30;3.72;;;1.88;;
39188;SDS011;24915;50.858;4.376;2022-12-20T05:25:15;3.70;;;1.70;;
39188;SDS011;24915;50.858;4.376;2022-12-20T05:28:00;6.43;;;2.10;;
39188;SDS011;24915;50.858;4.376;2022-12-20T05:30:26;5.68;;;2.47;;
39188;SDS011;24915;50.858;4.376;2022-12-20T05:32:52;6.00;;;2.00;;
39188;SDS011;24915;50.858;4.376;2022-12-20T05:35:18;5.45;;;1.83;;
39188;SDS011;24915;50.858;4.376;2022-12-20T05:37:43;3.42;;;1.80;;
39188;SDS011;24915;50.858;4.376;2022-12-20T05:40:10;4.03;;;1.80;;
39188;SDS011;24915;50.858;4.376;2022-12-20T05:42:36;7.20;;;1.80;;
39188;SDS011;24915;50.858;4.376;2022-12-20T05:45:02;7.05;;;1.60;;
39188;SDS011;24915;50.858;4.376;2022-12-20T05:47:29;2.97;;;1.77;;
39188;SDS011;24915;50.858;4.376;2022-12-20T05:49:58;4.53;;;1.95;;
39188;SDS011;24915;50.858;4.376;2022-12-20T05:52:24;3.53;;;1.90;;
39188;SDS011;24915;50.858;4.376;2022-12-20T05:54:50;9.63;;;1.80;;
39188;SDS011;24915;50.858;4.376;2022-12-20T05:57:15;6.20;;;1.75;;
39188;SDS011;24915;50.858;4.376;2022-12-20T05:59:41;5.38;;;1.60;;
39188;SDS011;24915;50.858;4.376;2022-12-20T06:02:07;2.40;;;1.90;;
39188;SDS011;24915;50.858;4.376;2022-12-20T06:04:34;4.15;;;1.70;;
39188;SDS011;24915;50.858;4.376;2022-12-20T06:07:02;2.53;;;1.73;;
39188;SDS011;24915;50.858;4.376;2022-12-20T06:09:29;3.45;;;1.83;;
39188;SDS011;24915;50.858;4.376;2022-12-20T06:11:55;4.60;;;1.60;;
39188;SDS011;24915;50.858;4.376;2022-12-20T06:14:21;4.30;;;2.00;;
39188;SDS011;24915;50.858;4.376;2022-12-20T06:16:46;3.85;;;2.17;;
39188;SDS011;24915;50.858;4.376;2022-12-20T06:19:12;3.90;;;1.95;;
39188;SDS011;24915;50.858;4.376;2022-12-20T06:21:38;3.30;;;1.65;;
39188;SDS011;24915;50.858;4.376;2022-12-20T06:24:04;3.80;;;1.70;;
39188;SDS011;24915;50.858;4.376;2022-12-20T06:26:30;5.22;;;2.58;;
39188;SDS011;24915;50.858;4.376;2022-12-20T06:29:00;2.65;;;1.35;;
39188;SDS011;24915;50.858;4.376;2022-12-20T06:31:26;3.90;;;1.95;;
39188;SDS011;24915;50.858;4.376;2022-12-20T06:33:52;5.68;;;1.83;;
39188;SDS011;24915;50.858;4.376;2022-12-20T06:36:18;7.43;;;1.65;;
39188;SDS011;24915;50.858;4.376;2022-12-20T06:38:43;3.88;;;1.45;;
39188;SDS011;24915;50.858;4.376;2022-12-20T06:41:09;3.03;;;1.73;;
39188;SDS011;24915;50.858;4.376;2022-12-20T06:43:35;3.88;;;1.77;;
39188;SDS011;24915;50.858;4.376;2022-12-20T06:46:00;3.75;;;1.60;;
39188;SDS011;24915;50.858;4.376;2022-12-20T06:48:26;2.33;;;1.50;;
39188;SDS011;24915;50.858;4.376;2022-12-20T06:50:51;7.97;;;2.40;;
39188;SDS011;24915;50.858;4.376;2022-12-20T06:53:17;4.93;;;1.90;;
39188;SDS011;24915;50.858;4.376;2022-12-20T06:55:45;4.35;;;1.52;;
39188;SDS011;24915;50.858;4.376;2022-12-20T06:58:11;3.90;;;2.03;;
39188;SDS011;24915;50.858;4.376;2022-12-20T07:00:37;5.28;;;2.05;;
39188;SDS011;24915;50.858;4.376;2022-12-20T07:03:03;2.75;;;2.10;;
39188;SDS011;24915;50.858;4.376;2022-12-20T07:05:28;3.80;;;2.65;;
39188;SDS011;24915;50.858;4.376;2022-12-20T07:07:54;8.57;;;3.63;;
39188;SDS011;24915;50.858;4.376;2022-12-20T07:10:20;9.48;;;3.65;;
39188;SDS011;24915;50.858;4.376;2022-12-20T07:12:45;4.75;;;2.20;;
39188;SDS011;24915;50.858;4.376;2022-12-20T07:15:11;6.60;;;2.03;;
39188;SDS011;24915;50.858;4.376;2022-12-20T07:17:38;4.75;;;2.00;;
39188;SDS011;24915;50.858;4.376;2022-12-20T07:20:03;8.10;;;2.50;;
39188;SDS011;24915;50.858;4.376;2022-12-20T07:22:31;5.50;;;2.05;;
39188;SDS011;24915;50.858;4.376;2022-12-20T07:24:58;6.32;;;1.90;;
39188;SDS011;24915;50.858;4.376;2022-12-20T07:27:24;7.10;;;1.85;;
39188;SDS011;24915;50.858;4.376;2022-12-20T07:29:50;3.65;;;1.80;;
39188;SDS011;24915;50.858;4.376;2022-12-20T07:32:15;4.07;;;2.33;;
39188;SDS011;24915;50.858;4.376;2022-12-20T07:34:41;8.85;;;2.00;;
39188;SDS011;24915;50.858;4.376;2022-12-20T07:37:07;5.55;;;2.40;;
39188;SDS011;24915;50.858;4.376;2022-12-20T07:39:33;5.28;;;1.90;;
39188;SDS011;24915;50.858;4.376;2022-12-20T07:41:58;4.28;;;1.65;;
39188;SDS011;24915;50.858;4.376;2022-12-20T07:44:24;3.75;;;2.05;;
39188;SDS011;24915;50.858;4.376;2022-12-20T07:46:50;5.10;;;1.92;;
39188;SDS011;24915;50.858;4.376;2022-12-20T07:49:15;4.05;;;1.80;;
39188;SDS011;24915;50.858;4.376;2022-12-20T07:51:46;4.45;;;2.00;;
39188;SDS011;24915;50.858;4.376;2022-12-20T07:54:16;2.78;;;1.80;;
39188;SDS011;24915;50.858;4.376;2022-12-20T07:56:49;5.13;;;2.17;;
39188;SDS011;24915;50.858;4.376;2022-12-20T07:59:20;4.88;;;2.50;;
39188;SDS011;24915;50.858;4.376;2022-12-20T08:01:52;6.38;;;2.88;;
39188;SDS011;24915;50.858;4.376;2022-12-20T08:04:24;6.78;;;2.47;;
39188;SDS011;24915;50.858;4.376;2022-12-20T08:06:51;4.95;;;1.90;;
39188;SDS011;24915;50.858;4.376;2022-12-20T08:09:20;11.38;;;2.83;;
39188;SDS011;24915;50.858;4.376;2022-12-20T08:11:48;4.75;;;2.05;;
39188;SDS011;24915;50.858;4.376;2022-12-20T08:14:15;2.72;;;2.15;;
39188;SDS011;24915;50.858;4.376;2022-12-20T08:16:42;4.07;;;2.30;;
39188;SDS011;24915;50.858;4.376;2022-12-20T08:19:08;6.20;;;2.00;;
39188;SDS011;24915;50.858;4.376;2022-12-20T08:21:34;5.63;;;2.20;;
39188;SDS011;24915;50.858;4.376;2022-12-20T08:24:00;5.18;;;2.58;;
39188;SDS011;24915;50.858;4.376;2022-12-20T08:26:25;3.85;;;2.38;;
39188;SDS011;24915;50.858;4.376;2022-12-20T08:28:52;5.25;;;2.00;;
39188;SDS011;24915;50.858;4.376;2022-12-20T08:31:18;8.18;;;2.40;;
39188;SDS011;24915;50.858;4.376;2022-12-20T08:33:44;5.53;;;2.70;;
39188;SDS011;24915;50.858;4.376;2022-12-20T08:36:10;6.45;;;3.38;;
39188;SDS011;24915;50.858;4.376;2022-12-20T08:38:37;9.13;;;2.90;;
39188;SDS011;24915;50.858;4.376;2022-12-20T08:41:04;7.97;;;3.05;;
39188;SDS011;24915;50.858;4.376;2022-12-20T08:43:35;4.13;;;2.40;;
39188;SDS011;24915;50.858;4.376;2022-12-20T08:46:01;9.02;;;2.80;;
39188;SDS011;24915;50.858;4.376;2022-12-20T08:48:27;6.07;;;3.00;;
39188;SDS011;24915;50.858;4.376;2022-12-20T08:50:54;4.68;;;2.47;;
39188;SDS011;24915;50.858;4.376;2022-12-20T08:53:25;4.72;;;2.13;;
39188;SDS011;24915;50.858;4.376;2022-12-20T08:55:51;9.77;;;2.92;;
39188;SDS011;24915;50.858;4.376;2022-12-20T08:58:18;5.38;;;2.45;;
39188;SDS011;24915;50.858;4.376;2022-12-20T09:00:44;5.22;;;2.58;;
39188;SDS011;24915;50.858;4.376;2022-12-20T09:03:11;6.35;;;2.97;;
39188;SDS011;24915;50.858;4.376;2022-12-20T09:05:46;6.95;;;2.72;;
39188;SDS011;24915;50.858;4.376;2022-12-20T09:08:13;7.75;;;3.53;;
39188;SDS011;24915;50.858;4.376;2022-12-20T09:10:40;5.55;;;2.15;;
39188;SDS011;24915;50.858;4.376;2022-12-20T09:13:06;3.55;;;2.40;;
39188;SDS011;24915;50.858;4.376;2022-12-20T09:15:35;10.30;;;3.95;;
39188;SDS011;24915;50.858;4.376;2022-12-20T09:18:01;8.70;;;3.00;;
39188;SDS011;24915;50.858;4.376;2022-12-20T09:20:27;5.20;;;3.00;;
39188;SDS011;24915;50.858;4.376;2022-12-20T09:22:53;8.40;;;2.80;;
39188;SDS011;24915;50.858;4.376;2022-12-20T09:25:19;5.53;;;2.90;;
39188;SDS011;24915;50.858;4.376;2022-12-20T09:27:45;9.38;;;3.42;;
39188;SDS011;24915;50.858;4.376;2022-12-20T09:30:10;7.57;;;3.55;;
39188;SDS011;24915;50.858;4.376;2022-12-20T09:32:36;9.95;;;2.63;;
39188;SDS011;24915;50.858;4.376;2022-12-20T09:35:02;11.18;;;2.60;;
39188;SDS011;24915;50.858;4.376;2022-12-20T09:37:29;4.72;;;2.63;;
39188;SDS011;24915;50.858;4.376;2022-12-20T09:39:55;6.10;;;3.00;;
39188;SDS011;24915;50.858;4.376;2022-12-20T09:42:23;6.85;;;3.13;;
39188;SDS011;24915;50.858;4.376;2022-12-20T09:44:50;7.90;;;3.10;;
39188;SDS011;24915;50.858;4.376;2022-12-20T09:47:17;6.15;;;3.00;;
39188;SDS011;24915;50.858;4.376;2022-12-20T09:49:46;15.52;;;3.50;;
39188;SDS011;24915;50.858;4.376;2022-12-20T09:59:49;7.13;;;2.72;;
39188;SDS011;24915;50.858;4.376;2022-12-20T10:02:15;9.07;;;3.22;;
39188;SDS011;24915;50.858;4.376;2022-12-20T10:04:46;12.63;;;3.78;;
39188;SDS011;24915;50.858;4.376;2022-12-20T10:07:25;8.35;;;2.95;;
39188;SDS011;24915;50.858;4.376;2022-12-20T10:22:59;9.48;;;4.55;;
39188;SDS011;24915;50.858;4.376;2022-12-20T10:25:35;4.68;;;3.20;;
39188;SDS011;24915;50.858;4.376;2022-12-20T10:28:01;9.02;;;3.30;;
39188;SDS011;24915;50.858;4.376;2022-12-20T10:30:34;8.20;;;3.30;;
39188;SDS011;24915;50.858;4.376;2022-12-20T10:33:00;8.90;;;2.83;;
39188;SDS011;24915;50.858;4.376;2022-12-20T10:35:29;6.63;;;3.13;;
39188;SDS011;24915;50.858;4.376;2022-12-20T10:38:08;9.77;;;3.58;;
39188;SDS011;24915;50.858;4.376;2022-12-20T10:40:45;5.32;;;2.80;;
39188;SDS011;24915;50.858;4.376;2022-12-20T10:43:14;6.57;;;3.03;;
39188;SDS011;24915;50.858;4.376;2022-12-20T10:45:42;5.45;;;2.95;;
39188;SDS011;24915;50.858;4.376;2022-12-20T10:53:35;5.50;;;3.50;;
39188;SDS011;24915;50.858;4.376;2022-12-20T11:01:44;4.80;;;3.00;;
39188;SDS011;24915;50.858;4.376;2022-12-20T11:06:53;9.13;;;3.83;;
39188;SDS011;24915;50.858;4.376;2022-12-20T11:09:29;8.35;;;3.50;;
39188;SDS011;24915;50.858;4.376;2022-12-20T11:12:11;10.18;;;3.38;;
39188;SDS011;24915;50.858;4.376;2022-12-20T11:14:38;7.78;;;3.28;;
39188;SDS011;24915;50.858;4.376;2022-12-20T11:17:28;9.43;;;3.50;;
39188;SDS011;24915;50.858;4.376;2022-12-20T11:22:42;9.15;;;3.30;;
39188;SDS011;24915;50.858;4.376;2022-12-20T11:39:34;10.45;;;3.65;;
39188;SDS011;24915;50.858;4.376;2022-12-20T11:44:57;5.88;;;3.05;;
39188;SDS011;24915;50.858;4.376;2022-12-20T11:52:59;6.20;;;3.10;;
39188;SDS011;24915;50.858;4.376;2022-12-20T11:55:35;5.75;;;2.60;;
39188;SDS011;24915;50.858;4.376;2022-12-20T11:58:14;6.22;;;3.25;;
39188;SDS011;24915;50.858;4.376;2022-12-20T12:00:48;11.30;;;3.85;;
39188;SDS011;24915;50.858;4.376;2022-12-20T12:03:37;7.88;;;3.47;;
39188;SDS011;24915;50.858;4.376;2022-12-20T12:08:42;10.25;;;3.50;;
39188;SDS011;24915;50.858;4.376;2022-12-20T12:11:18;8.50;;;3.53;;
39188;SDS011;24915;50.858;4.376;2022-12-20T12:13:47;9.68;;;3.60;;
39188;SDS011;24915;50.858;4.376;2022-12-20T12:16:17;8.13;;;3.70;;
39188;SDS011;24915;50.858;4.376;2022-12-20T12:18:52;12.50;;;4.10;;
39188;SDS011;24915;50.858;4.376;2022-12-20T12:21:22;6.63;;;3.35;;
39188;SDS011;24915;50.858;4.376;2022-12-20T12:26:21;7.32;;;3.20;;
39188;SDS011;24915;50.858;4.376;2022-12-20T12:29:10;8.10;;;2.92;;
39188;SDS011;24915;50.858;4.376;2022-12-20T12:45:36;14.60;;;4.55;;
39188;SDS011;24915;50.858;4.376;2022-12-20T12:50:59;19.92;;;4.07;;
39188;SDS011;24915;50.858;4.376;2022-12-20T13:09:21;12.00;;;4.45;;
39188;SDS011;24915;50.858;4.376;2022-12-20T13:12:46;9.55;;;4.72;;
39188;SDS011;24915;50.858;4.376;2022-12-20T13:20:27;11.80;;;4.50;;
39188;SDS011;24915;50.858;4.376;2022-12-20T13:23:04;9.00;;;4.05;;
39188;SDS011;24915;50.858;4.376;2022-12-20T13:25:47;7.68;;;3.60;;
39188;SDS011;24915;50.858;4.376;2022-12-20T13:36:01;8.10;;;4.18;;
39188;SDS011;24915;50.858;4.376;2022-12-20T13:43:47;8.32;;;4.07;;
39188;SDS011;24915;50.858;4.376;2022-12-20T13:46:20;7.97;;;4.43;;
39188;SDS011;24915;50.858;4.376;2022-12-20T13:48:52;8.68;;;4.50;;
39188;SDS011;24915;50.858;4.376;2022-12-20T13:51:23;9.90;;;4.75;;
39188;SDS011;24915;50.858;4.376;2022-12-20T13:53:54;8.07;;;4.43;;
39188;SDS011;24915;50.858;4.376;2022-12-20T13:59:03;6.90;;;3.83;;
39188;SDS011;24915;50.858;4.376;2022-12-20T14:01:31;9.52;;;4.43;;
39188;SDS011;24915;50.858;4.376;2022-12-20T14:03:57;9.20;;;3.88;;
39188;SDS011;24915;50.858;4.376;2022-12-20T14:06:27;6.50;;;3.72;;
39188;SDS011;24915;50.858;4.376;2022-12-20T14:08:52;10.05;;;3.75;;
39188;SDS011;24915;50.858;4.376;2022-12-20T14:11:19;9.40;;;4.40;;
39188;SDS011;24915;50.858;4.376;2022-12-20T14:14:10;5.28;;;4.20;;
39188;SDS011;24915;50.858;4.376;2022-12-20T14:16:36;5.97;;;4.10;;
39188;SDS011;24915;50.858;4.376;2022-12-20T14:19:03;6.80;;;4.40;;
39188;SDS011;24915;50.858;4.376;2022-12-20T14:21:38;7.72;;;4.93;;
39188;SDS011;24915;50.858;4.376;2022-12-20T14:24:13;10.30;;;4.72;;
39188;SDS011;24915;50.858;4.376;2022-12-20T14:26:42;7.97;;;4.00;;
39188;SDS011;24915;50.858;4.376;2022-12-20T14:29:15;8.07;;;4.40;;
39188;SDS011;24915;50.858;4.376;2022-12-20T14:31:46;6.10;;;4.68;;
39188;SDS011;24915;50.858;4.376;2022-12-20T14:34:15;7.53;;;4.15;;
39188;SDS011;24915;50.858;4.376;2022-12-20T14:36:49;4.95;;;3.55;;
39188;SDS011;24915;50.858;4.376;2022-12-20T14:39:25;9.65;;;3.58;;
39188;SDS011;24915;50.858;4.376;2022-12-20T14:41:54;5.05;;;3.78;;
39188;SDS011;24915;50.858;4.376;2022-12-20T14:44:22;5.28;;;3.92;;
39188;SDS011;24915;50.858;4.376;2022-12-20T14:46:49;12.73;;;4.85;;
39188;SDS011;24915;50.858;4.376;2022-12-20T14:51:46;9.90;;;4.55;;
39188;SDS011;24915;50.858;4.376;2022-12-20T14:54:17;10.15;;;4.47;;
39188;SDS011;24915;50.858;4.376;2022-12-20T14:56:48;7.97;;;4.38;;
39188;SDS011;24915;50.858;4.376;2022-12-20T14:59:17;6.50;;;3.97;;
39188;SDS011;24915;50.858;4.376;2022-12-20T15:01:51;7.60;;;4.40;;
39188;SDS011;24915;50.858;4.376;2022-12-20T15:04:21;10.40;;;6.97;;
39188;SDS011;24915;50.858;4.376;2022-12-20T15:06:58;11.15;;;5.20;;
39188;SDS011;24915;50.858;4.376;2022-12-20T15:09:24;8.73;;;4.80;;
39188;SDS011;24915;50.858;4.376;2022-12-20T15:11:50;10.68;;;5.60;;
39188;SDS011;24915;50.858;4.376;2022-12-20T15:14:21;12.52;;;4.43;;
39188;SDS011;24915;50.858;4.376;2022-12-20T15:16:52;12.70;;;4.80;;
39188;SDS011;24915;50.858;4.376;2022-12-20T15:19:18;12.52;;;5.55;;
39188;SDS011;24915;50.858;4.376;2022-12-20T15:21:44;9.57;;;4.65;;
39188;SDS011;24915;50.858;4.376;2022-12-20T15:24:11;9.93;;;3.95;;
39188;SDS011;24915;50.858;4.376;2022-12-20T15:26:39;7.28;;;4.30;;
39188;SDS011;24915;50.858;4.376;2022-12-20T15:29:05;5.07;;;4.00;;
39188;SDS011;24915;50.858;4.376;2022-12-20T15:31:34;8.05;;;4.05;;
39188;SDS011;24915;50.858;4.376;2022-12-20T15:34:06;4.90;;;4.32;;
39188;SDS011;24915;50.858;4.376;2022-12-20T15:36:39;7.53;;;4.05;;
39188;SDS011;24915;50.858;4.376;2022-12-20T15:39:05;6.07;;;4.05;;
39188;SDS011;24915;50.858;4.376;2022-12-20T15:41:31;7.63;;;4.65;;
39188;SDS011;24915;50.858;4.376;2022-12-20T15:43:59;7.53;;;4.30;;
39188;SDS011;24915;50.858;4.376;2022-12-20T15:46:29;7.30;;;4.90;;
39188;SDS011;24915;50.858;4.376;2022-12-20T15:48:55;8.63;;;4.20;;
39188;SDS011;24915;50.858;4.376;2022-12-20T15:51:34;11.35;;;4.63;;
39188;SDS011;24915;50.858;4.376;2022-12-20T15:54:03;6.63;;;4.43;;
39188;SDS011;24915;50.858;4.376;2022-12-20T15:56:38;4.60;;;4.20;;
39188;SDS011;24915;50.858;4.376;2022-12-20T15:59:03;7.50;;;4.80;;
39188;SDS011;24915;50.858;4.376;2022-12-20T16:01:36;6.88;;;5.05;;
39188;SDS011;24915;50.858;4.376;2022-12-20T16:04:03;7.45;;;5.32;;
39188;SDS011;24915;50.858;4.376;2022-12-20T16:06:29;5.07;;;4.57;;
39188;SDS011;24915;50.858;4.376;2022-12-20T16:08:55;7.38;;;4.65;;
39188;SDS011;24915;50.858;4.376;2022-12-20T16:11:22;7.50;;;5.55;;
39188;SDS011;24915;50.858;4.376;2022-12-20T16:13:52;4.70;;;3.88;;
39188;SDS011;24915;50.858;4.376;2022-12-20T16:16:19;6.60;;;4.75;;
39188;SDS011;24915;50.858;4.376;2022-12-20T16:18:47;6.45;;;5.15;;
39188;SDS011;24915;50.858;4.376;2022-12-20T16:21:17;8.30;;;5.05;;
39188;SDS011;24915;50.858;4.376;2022-12-20T16:23:51;7.38;;;4.68;;
39188;SDS011;24915;50.858;4.376;2022-12-20T16:26:18;8.52;;;5.25;;
39188;SDS011;24915;50.858;4.376;2022-12-20T16:28:45;10.65;;;4.88;;
39188;SDS011;24915;50.858;4.376;2022-12-20T16:31:32;5.78;;;5.13;;
39188;SDS011;24915;50.858;4.376;2022-12-20T16:34:00;6.05;;;5.35;;
39188;SDS011;24915;50.858;4.376;2022-12-20T16:36:28;8.73;;;5.95;;
39188;SDS011;24915;50.858;4.376;2022-12-20T16:38:54;10.77;;;5.70;;
39188;SDS011;24915;50.858;4.376;2022-12-20T16:41:23;6.97;;;5.35;;
39188;SDS011;24915;50.858;4.376;2022-12-20T16:43:51;8.68;;;6.72;;
39188;SDS011;24915;50.858;4.376;2022-12-20T16:46:19;7.93;;;6.05;;
39188;SDS011;24915;50.858;4.376;2022-12-20T16:48:46;11.18;;;5.95;;
39188;SDS011;24915;50.858;4.376;2022-12-20T16:51:26;7.60;;;6.47;;
39188;SDS011;24915;50.858;4.376;2022-12-20T16:53:58;7.55;;;5.60;;
39188;SDS011;24915;50.858;4.376;2022-12-20T16:56:26;8.18;;;5.78;;
39188;SDS011;24915;50.858;4.376;2022-12-20T16:58:53;7.80;;;5.88;;
39188;SDS011;24915;50.858;4.376;2022-12-20T17:01:20;7.35;;;5.80;;
39188;SDS011;24915;50.858;4.376;2022-12-20T17:03:50;8.55;;;6.38;;
39188;SDS011;24915;50.858;4.376;2022-12-20T17:06:16;9.90;;;6.00;;
39188;SDS011;24915;50.858;4.376;2022-12-20T17:08:43;6.95;;;5.43;;
39188;SDS011;24915;50.858;4.376;2022-12-20T17:11:16;6.65;;;5.45;;
39188;SDS011;24915;50.858;4.376;2022-12-20T17:13:45;7.32;;;5.50;;